Brashear, Texas
Current Conditions -  °F | °C
As of 1:35 AM on Wednesday 22 Oct 2014 (Local Time) from KSLR Reporting Station
Haze Haze  
Wind Chill: 59°   Ceiling: Unl
Heat Index: 59°   Visibility: 3mi
Dew Point: 58°   Wind: 5mph
Humidity: 95%   Direction: 90°E
Pressure: 30.09"   Gusts: NA
Location:  33.12°N, 95.73°W
Report Text: KSLR 220635Z AUTO 09004KT 3SM BR CLR 15/14 A3009 RMK AO2 T01500142
Loading
Personal Weather Stations






























Interactive Weather Map
Tropical Storm Tracking
New forecast layout! Learn more

10-Day Weather Forecast

Advertisements
Track Severe Weather on mobile